Time;durP1;ratioP1;P1;durP2;ratioP2;P2;SDS_P1;SDS_P2;PMS_P1;PMS_P2;Temp;Humidity;BMP_temperature;BMP_pressure;BME280_temperature;BME280_humidity;BME280_pressure;Samples;Min_cycle;Max_cycle;Signal;HPM_P1;HPM_P2
2023/12/18 00:02:06;;;;;;;37.47;16.88;;;7.70;99.90;;;;;;5029786;28;20116;-67
2023/12/18 00:04:32;;;;;;;37.95;17.13;;;7.70;99.90;;;;;;5026848;28;20391;-68
2023/12/18 00:06:58;;;;;;;35.63;17.13;;;7.80;99.90;;;;;;5024475;28;20037;-69
2023/12/18 00:09:23;;;;;;;36.72;17.38;;;7.70;99.90;;;;;;5029443;28;20121;-68
2023/12/18 00:11:49;;;;;;;33.33;16.83;;;7.80;99.90;;;;;;5029323;28;20065;-68
2023/12/18 00:14:14;;;;;;;41.95;17.17;;;7.70;99.90;;;;;;5017854;28;20403;-67
2023/12/18 00:16:40;;;;;;;38.28;17.92;;;7.80;99.90;;;;;;5017987;28;20044;-66
2023/12/18 00:19:06;;;;;;;47.33;17.60;;;7.70;99.90;;;;;;5030012;28;20041;-66
2023/12/18 00:21:32;;;;;;;31.52;16.05;;;7.80;99.90;;;;;;5024619;28;20091;-66
2023/12/18 00:23:57;;;;;;;37.00;17.35;;;7.70;99.90;;;;;;5028893;28;20431;-66
2023/12/18 00:26:23;;;;;;;33.95;17.10;;;7.80;99.90;;;;;;5012163;28;20037;-66
2023/12/18 00:28:49;;;;;;;40.00;17.63;;;7.70;99.90;;;;;;5007931;28;20141;-66
2023/12/18 00:31:15;;;;;;;39.33;17.20;;;7.70;99.90;;;;;;5004498;28;20135;-66
2023/12/18 00:33:41;;;;;;;36.22;16.25;;;7.70;99.90;;;;;;5027827;28;20464;-68
2023/12/18 00:43:52;;;;;;;43.28;17.55;;;7.70;99.90;;;;;;5603485;22;20053;-68
2023/12/18 00:46:18;;;;;;;38.22;17.40;;;7.70;99.90;;;;;;4990817;28;20096;-68
2023/12/18 00:48:44;;;;;;;37.47;17.52;;;7.70;99.90;;;;;;5016248;28;20129;-68
2023/12/18 00:51:11;;;;;;;34.75;16.60;;;7.70;99.90;;;;;;4980099;28;20070;-68
2023/12/18 00:53:37;;;;;;;35.08;17.20;;;7.80;99.90;;;;;;4975544;28;20034;-68
2023/12/18 00:56:03;;;;;;;40.42;17.17;;;7.70;99.90;;;;;;5060564;22;20033;-69
2023/12/18 00:58:28;;;;;;;39.80;17.85;;;7.70;99.90;;;;;;5008776;28;20388;-68
2023/12/18 01:00:54;;;;;;;38.17;16.40;;;7.70;99.90;;;;;;5012811;28;20043;-69
2023/12/18 01:12:06;;;;;;;37.45;18.42;;;7.80;99.90;;;;;;4990456;28;20054;-68
2023/12/18 01:14:32;;;;;;;40.83;19.23;;;7.80;99.90;;;;;;4997309;28;20053;-68
2023/12/18 01:37:40;;;;;;;42.67;20.08;;;7.70;99.90;;;;;;6230766;22;20981;-68
2023/12/18 01:45:10;;;;;;;40.78;19.27;;;7.70;99.90;;;;;;5025561;28;20076;-67
2023/12/18 01:47:36;;;;;;;44.60;19.95;;;7.70;99.90;;;;;;5030507;28;20503;-67
2023/12/18 01:50:02;;;;;;;36.80;19.77;;;7.70;99.90;;;;;;5030331;28;20148;-66
2023/12/18 01:52:29;;;;;;;38.58;18.17;;;7.70;99.90;;;;;;5010373;28;20089;-67
2023/12/18 01:54:56;;;;;;;39.97;20.65;;;7.70;99.90;;;;;;5013356;28;20315;-66
2023/12/18 02:15:29;;;;;;;36.38;20.45;;;7.80;99.90;;;;;;6249359;22;20014;-64
2023/12/18 02:22:59;;;;;;;45.60;19.58;;;7.80;99.90;;;;;;5044745;28;20098;-65
2023/12/18 02:25:24;;;;;;;41.10;20.27;;;7.80;99.90;;;;;;5006517;28;20037;-65
2023/12/18 02:27:50;;;;;;;43.88;21.13;;;7.80;99.90;;;;;;4993509;28;20152;-66
2023/12/18 02:30:22;;;;;;;43.10;19.92;;;7.80;99.90;;;;;;5013512;28;20447;-64
2023/12/18 02:32:48;;;;;;;43.63;21.13;;;7.80;99.90;;;;;;5004882;28;20040;-66
2023/12/18 02:54:11;;;;;;;42.22;22.58;;;7.80;99.90;;;;;;6221036;22;20006;-67
2023/12/18 02:56:37;;;;;;;41.67;22.67;;;7.80;99.90;;;;;;5014858;28;20167;-66
2023/12/18 02:59:02;;;;;;;48.25;19.48;;;7.80;99.90;;;;;;5037150;28;20036;-69
2023/12/18 03:06:39;;;;;;;42.53;20.35;;;7.80;99.90;;;;;;6133982;22;20050;-67
2023/12/18 03:09:05;;;;;;;47.30;20.92;;;7.90;99.90;;;;;;5033538;28;20473;-67
2023/12/18 03:11:30;;;;;;;39.70;19.92;;;7.90;99.90;;;;;;5040996;28;20055;-69
2023/12/18 03:19:07;;;;;;;40.65;19.25;;;7.90;99.90;;;;;;5752744;22;20398;-69
2023/12/18 03:21:32;;;;;;;36.75;17.58;;;7.90;99.90;;;;;;5016160;28;20037;-68
2023/12/18 03:23:58;;;;;;;44.50;20.50;;;7.90;99.90;;;;;;5024422;28;20539;-67
2023/12/18 03:26:24;;;;;;;44.85;21.08;;;7.90;99.90;;;;;;5261220;22;20330;-65
2023/12/18 03:28:49;;;;;;;36.85;20.23;;;7.90;99.90;;;;;;5028337;28;20051;-69
2023/12/18 03:31:15;;;;;;;39.97;19.10;;;7.90;99.90;;;;;;5032367;28;20114;-69
2023/12/18 03:33:41;;;;;;;31.77;18.20;;;8.00;99.90;;;;;;5050780;28;20048;-69
2023/12/18 03:36:08;;;;;;;43.20;19.23;;;7.90;99.90;;;;;;5019675;28;20033;-69
2023/12/18 03:38:33;;;;;;;38.10;18.83;;;7.90;99.90;;;;;;5042399;28;20060;-69
2023/12/18 03:52:27;;;;;;;40.97;19.83;;;8.00;99.90;;;;;;5528827;22;20042;-66
2023/12/18 03:54:52;;;;;;;43.60;20.83;;;8.00;99.90;;;;;;5036002;28;20041;-65
2023/12/18 04:05:49;;;;;;;34.33;18.40;;;8.00;99.90;;;;;;5857595;22;20625;-66
2023/12/18 04:08:15;;;;;;;43.88;19.38;;;8.00;99.90;;;;;;5022783;28;20044;-66
2023/12/18 04:10:40;;;;;;;34.58;19.88;;;8.00;99.90;;;;;;5024903;28;20168;-68
2023/12/18 04:21:58;;;;;;;33.45;17.77;;;8.00;99.90;;;;;;5196759;22;20046;-68
2023/12/18 04:24:24;;;;;;;37.65;21.05;;;8.00;99.90;;;;;;5005086;28;20064;-68
2023/12/18 04:26:50;;;;;;;38.25;19.70;;;8.00;99.90;;;;;;5022891;28;20056;-67
2023/12/18 04:29:17;;;;;;;37.72;19.63;;;8.00;99.90;;;;;;5007382;28;20037;-67
2023/12/18 04:38:01;;;;;;;45.97;19.83;;;7.90;99.90;;;;;;5742712;22;20082;-68
2023/12/18 04:40:27;;;;;;;37.58;19.65;;;7.90;99.90;;;;;;5034844;28;20045;-66
2023/12/18 04:42:55;;;;;;;36.85;18.23;;;7.90;99.90;;;;;;5036640;28;20033;-69
2023/12/18 04:45:21;;;;;;;37.03;20.05;;;7.90;99.90;;;;;;5020341;28;20067;-69
2023/12/18 04:47:46;;;;;;;36.13;20.38;;;7.90;99.90;;;;;;5053879;28;20387;-68
2023/12/18 05:07:57;;;;;;;38.83;19.20;;;7.80;99.90;;;;;;6127315;22;20024;-67
2023/12/18 05:10:23;;;;;;;36.28;18.23;;;7.80;99.90;;;;;;5034747;28;20137;-68
2023/12/18 05:12:49;;;;;;;37.92;19.38;;;7.80;99.90;;;;;;5032864;28;20037;-67
2023/12/18 05:15:14;;;;;;;32.72;18.85;;;7.80;99.90;;;;;;4997616;28;20529;-69
2023/12/18 05:17:41;;;;;;;35.10;20.77;;;7.80;99.90;;;;;;5034025;28;20037;-67
2023/12/18 05:20:08;;;;;;;41.83;19.10;;;7.80;99.90;;;;;;5049228;28;20406;-67
2023/12/18 05:35:31;;;;;;;32.85;19.65;;;7.80;99.90;;;;;;5060324;22;20491;-68
2023/12/18 05:37:56;;;;;;;30.70;17.17;;;7.90;99.90;;;;;;5031590;28;20057;-66
2023/12/18 05:50:43;;;;;;;37.03;21.73;;;7.90;99.90;;;;;;5606441;22;20049;-67
2023/12/18 05:53:09;;;;;;;37.35;18.58;;;7.90;99.90;;;;;;4994085;28;20095;-68
2023/12/18 05:58:22;;;;;;;36.95;18.23;;;7.90;99.90;;;;;;5866332;22;20052;-68
2023/12/18 06:00:48;;;;;;;33.95;17.20;;;7.90;99.90;;;;;;5047343;28;20029;-68
2023/12/18 06:23:49;;;;;;;35.92;17.73;;;7.90;99.90;;;;;;5032699;28;20056;-67
2023/12/18 06:26:15;;;;;;;37.55;18.65;;;7.90;99.90;;;;;;5021318;28;20029;-66
2023/12/18 06:28:41;;;;;;;34.15;17.30;;;7.90;99.90;;;;;;5029452;28;20067;-69
2023/12/18 06:31:06;;;;;;;33.95;19.00;;;7.90;99.90;;;;;;5030035;28;20093;-66
2023/12/18 06:33:32;;;;;;;30.13;16.10;;;7.90;99.90;;;;;;4996871;28;20034;-66
2023/12/18 06:35:57;;;;;;;37.85;18.38;;;7.90;99.90;;;;;;5083597;22;20084;-70
2023/12/18 06:38:23;;;;;;;37.95;19.67;;;7.90;99.90;;;;;;5002189;28;20092;-66
2023/12/18 06:40:48;;;;;;;35.88;17.50;;;7.90;99.90;;;;;;5035947;28;20040;-65
2023/12/18 06:43:14;;;;;;;39.78;19.13;;;7.90;99.90;;;;;;5018563;28;20029;-67
2023/12/18 06:45:40;;;;;;;36.25;19.50;;;7.90;99.90;;;;;;5020493;28;20033;-68
2023/12/18 06:48:05;;;;;;;46.55;21.10;;;7.90;99.90;;;;;;5019472;28;20106;-67
2023/12/18 06:53:10;;;;;;;43.55;19.02;;;7.90;99.90;;;;;;5408014;23;20511;-68
2023/12/18 06:55:38;;;;;;;38.25;16.90;;;7.90;99.90;;;;;;5034958;28;20052;-68
2023/12/18 06:58:04;;;;;;;39.67;20.33;;;8.00;99.90;;;;;;5045919;28;20028;-68
2023/12/18 07:00:29;;;;;;;34.63;17.50;;;8.00;99.90;;;;;;5050515;28;20364;-67
2023/12/18 07:02:55;;;;;;;35.53;18.20;;;8.00;99.90;;;;;;5049434;28;20418;-68
2023/12/18 07:05:21;;;;;;;34.13;18.60;;;8.00;99.90;;;;;;5440258;22;20063;-68
2023/12/18 07:07:47;;;;;;;38.50;18.92;;;8.00;99.90;;;;;;5031379;28;20037;-68
2023/12/18 07:23:10;;;;;;;37.40;19.63;;;7.90;99.90;;;;;;5262600;22;20048;-67
2023/12/18 07:25:36;;;;;;;38.72;20.20;;;8.00;99.90;;;;;;5030950;28;20049;-68
2023/12/18 07:28:01;;;;;;;42.53;20.10;;;7.90;99.90;;;;;;5033587;28;20547;-67
2023/12/18 07:30:27;;;;;;;37.28;18.30;;;7.90;99.90;;;;;;5035945;28;20037;-67
2023/12/18 07:32:53;;;;;;;41.65;21.00;;;8.00;99.90;;;;;;5030037;28;20037;-67
2023/12/18 07:35:18;;;;;;;38.20;20.48;;;8.00;99.90;;;;;;5031137;28;20136;-66
2023/12/18 07:42:55;;;;;;;41.67;19.58;;;8.00;99.90;;;;;;5564579;22;20054;-67
2023/12/18 07:45:20;;;;;;;38.05;19.90;;;8.00;99.90;;;;;;5012847;28;20037;-66
2023/12/18 08:05:54;;;;;;;41.67;23.33;;;8.10;99.90;;;;;;5532884;22;20048;-65
2023/12/18 08:15:47;;;;;;;42.13;22.77;;;8.20;99.90;;;;;;5050445;28;20041;-65
2023/12/18 08:20:48;;;;;;;41.72;24.33;;;8.20;99.90;;;;;;6109821;22;20084;-65
2023/12/18 08:23:14;;;;;;;39.85;21.83;;;8.20;99.90;;;;;;5034869;28;20123;-65
2023/12/18 08:25:39;;;;;;;38.03;23.02;;;8.30;99.90;;;;;;5049888;28;20128;-65
2023/12/18 08:30:38;;;;;;;37.30;20.38;;;8.30;99.90;;;;;;5018545;28;20049;-66
2023/12/18 08:33:03;;;;;;;39.17;20.42;;;8.30;99.90;;;;;;5007042;28;20045;-66
2023/12/18 08:35:29;;;;;;;36.70;18.90;;;8.30;99.90;;;;;;5004411;28;20034;-66
2023/12/18 08:47:59;;;;;;;43.65;21.90;;;8.40;99.90;;;;;;5988668;22;20119;-65
2023/12/18 08:50:26;;;;;;;41.10;20.38;;;8.30;99.90;;;;;;5004240;28;20063;-66
2023/12/18 08:52:52;;;;;;;46.08;20.63;;;8.40;99.90;;;;;;5002591;28;20041;-64
2023/12/18 08:55:19;;;;;;;37.10;19.88;;;8.40;99.90;;;;;;5002876;28;20480;-65
2023/12/18 08:57:45;;;;;;;39.40;20.13;;;8.40;99.90;;;;;;4995550;28;20508;-64
2023/12/18 09:00:12;;;;;;;42.65;20.88;;;8.40;99.90;;;;;;5011614;28;20109;-65
2023/12/18 09:10:24;;;;;;;46.40;23.65;;;8.50;99.90;;;;;;5353229;22;20103;-66
2023/12/18 09:16:39;;;;;;;44.97;20.00;;;8.50;99.90;;;;;;5150215;22;20606;-67
2023/12/18 09:19:05;;;;;;;44.20;22.38;;;8.50;99.90;;;;;;5026091;28;20129;-67
2023/12/18 09:21:31;;;;;;;45.45;22.17;;;8.50;99.90;;;;;;5032274;28;20574;-64
2023/12/18 09:23:56;;;;;;;41.33;23.30;;;8.50;99.90;;;;;;5018521;28;20030;-65
2023/12/18 09:26:22;;;;;;;38.72;19.42;;;8.50;99.90;;;;;;4979461;28;20099;-67
2023/12/18 09:28:48;;;;;;;45.47;23.90;;;8.50;99.90;;;;;;5008553;28;20071;-65
2023/12/18 09:31:16;;;;;;;44.03;22.48;;;8.50;99.90;;;;;;5046829;22;20091;-65
2023/12/18 09:33:41;;;;;;;47.35;23.80;;;8.50;99.90;;;;;;5034902;28;20045;-64
2023/12/18 09:36:07;;;;;;;45.15;22.92;;;8.50;99.90;;;;;;5038071;28;20033;-63
2023/12/18 09:38:33;;;;;;;42.30;19.75;;;8.50;99.90;;;;;;5026521;28;20041;-63
2023/12/18 09:40:59;;;;;;;43.80;21.77;;;8.50;99.90;;;;;;5035482;28;20052;-64
2023/12/18 09:43:26;;;;;;;44.88;21.55;;;8.50;99.90;;;;;;5048896;28;20395;-64
2023/12/18 09:45:53;;;;;;;40.60;20.73;;;8.60;99.90;;;;;;5019836;28;20423;-67
2023/12/18 09:48:18;;;;;;;44.45;21.02;;;8.60;99.90;;;;;;5026771;28;20059;-64
2023/12/18 09:50:45;;;;;;;47.97;22.75;;;8.60;99.90;;;;;;5052617;28;20486;-65
2023/12/18 09:53:13;;;;;;;45.25;22.90;;;8.60;99.90;;;;;;5052359;28;20048;-64
2023/12/18 09:55:39;;;;;;;48.25;22.00;;;8.60;99.90;;;;;;5040935;28;20032;-64
2023/12/18 09:58:06;;;;;;;42.78;21.83;;;8.60;99.90;;;;;;5027839;28;20399;-63
2023/12/18 10:00:32;;;;;;;46.67;21.45;;;8.60;99.90;;;;;;5023829;28;20032;-64
2023/12/18 10:02:59;;;;;;;44.38;23.50;;;8.70;99.90;;;;;;5050998;28;20043;-64
2023/12/18 10:05:26;;;;;;;46.97;20.63;;;8.60;99.90;;;;;;5051019;28;20052;-65
2023/12/18 10:07:53;;;;;;;43.40;23.30;;;8.60;99.90;;;;;;5051847;28;20037;-64
2023/12/18 10:10:19;;;;;;;45.85;21.30;;;8.60;99.90;;;;;;5044820;28;20033;-63
2023/12/18 10:12:47;;;;;;;49.70;22.67;;;8.60;99.90;;;;;;5051284;28;20029;-66
2023/12/18 10:15:12;;;;;;;41.83;22.02;;;8.60;99.90;;;;;;5052316;28;20276;-66
2023/12/18 10:17:42;;;;;;;43.47;21.90;;;8.60;99.90;;;;;;5026689;28;20120;-67
2023/12/18 10:20:09;;;;;;;43.05;25.02;;;8.60;99.90;;;;;;5034037;28;20025;-66
2023/12/18 10:22:35;;;;;;;49.10;22.35;;;8.60;99.90;;;;;;5032092;28;20069;-66
2023/12/18 10:25:04;;;;;;;45.38;22.48;;;8.60;99.90;;;;;;5033263;28;20080;-66
2023/12/18 10:27:31;;;;;;;48.45;25.58;;;8.60;99.90;;;;;;5051451;28;20041;-66
2023/12/18 10:29:57;;;;;;;50.35;23.02;;;8.60;99.90;;;;;;5033847;28;20037;-65
2023/12/18 10:32:23;;;;;;;42.60;23.50;;;8.60;99.90;;;;;;5016570;28;20045;-64
2023/12/18 10:34:50;;;;;;;41.88;21.92;;;8.70;99.90;;;;;;5041034;28;20107;-64
2023/12/18 10:37:20;;;;;;;49.28;24.00;;;8.60;99.90;;;;;;5038420;28;20077;-63
2023/12/18 10:39:49;;;;;;;42.03;23.38;;;8.60;99.90;;;;;;5050084;28;20025;-64
2023/12/18 10:42:30;;;;;;;51.22;23.67;;;8.70;99.90;;;;;;5050071;28;20115;-66
2023/12/18 10:44:58;;;;;;;50.22;24.60;;;8.70;99.90;;;;;;5019346;28;20044;-65
2023/12/18 10:47:25;;;;;;;41.78;22.55;;;8.70;99.90;;;;;;5048646;28;20068;-65
2023/12/18 10:49:53;;;;;;;46.22;23.90;;;8.70;99.90;;;;;;5020762;28;20391;-65
2023/12/18 10:52:20;;;;;;;43.80;23.05;;;8.70;99.90;;;;;;5045979;28;20040;-65
2023/12/18 10:54:46;;;;;;;48.47;25.20;;;8.70;99.90;;;;;;5033130;28;20272;-66
2023/12/18 10:57:17;;;;;;;42.55;22.40;;;8.70;99.90;;;;;;5041253;28;20041;-65
2023/12/18 10:59:48;;;;;;;41.53;20.95;;;8.70;99.90;;;;;;5048973;28;20032;-65
2023/12/18 11:02:15;;;;;;;45.80;22.40;;;8.70;99.90;;;;;;5049136;28;20040;-64
2023/12/18 11:04:46;;;;;;;51.20;25.27;;;8.70;99.90;;;;;;5049572;28;20033;-65
2023/12/18 11:07:16;;;;;;;45.13;20.27;;;8.70;99.90;;;;;;5041372;28;20041;-65
2023/12/18 11:09:46;;;;;;;38.15;20.77;;;8.80;99.90;;;;;;5044765;28;20091;-65
2023/12/18 11:12:13;;;;;;;40.65;23.02;;;8.70;99.90;;;;;;5048708;28;20037;-64
2023/12/18 11:14:58;;;;;;;39.65;20.95;;;8.80;99.90;;;;;;5050655;28;20128;-64
2023/12/18 11:17:52;;;;;;;47.20;21.52;;;8.80;99.90;;;;;;5041880;28;20049;-65
2023/12/18 11:20:30;;;;;;;44.42;20.17;;;8.80;99.90;;;;;;5048433;28;20033;-64
2023/12/18 11:22:57;;;;;;;43.58;22.42;;;8.80;99.90;;;;;;5022189;28;20041;-65
2023/12/18 11:25:47;;;;;;;48.72;22.95;;;8.90;99.90;;;;;;5050449;28;20037;-65
2023/12/18 11:28:12;;;;;;;45.85;21.27;;;8.90;99.90;;;;;;5050351;28;20122;-65
2023/12/18 11:30:42;;;;;;;42.13;22.80;;;8.90;99.90;;;;;;5044006;28;20087;-65
2023/12/18 11:33:10;;;;;;;43.38;20.45;;;8.90;99.90;;;;;;5049318;28;20045;-66
2023/12/18 11:35:37;;;;;;;38.50;21.73;;;9.00;99.90;;;;;;5050262;28;20041;-66
2023/12/18 11:38:14;;;;;;;36.90;20.40;;;9.00;99.90;;;;;;5050665;28;20088;-64
2023/12/18 11:40:50;;;;;;;42.95;22.60;;;9.00;99.90;;;;;;5046472;28;20110;-65
2023/12/18 11:43:36;;;;;;;40.67;22.00;;;9.10;99.90;;;;;;5050248;28;20044;-65
2023/12/18 11:46:03;;;;;;;43.15;20.75;;;9.10;99.90;;;;;;5045629;28;20072;-64
2023/12/18 11:48:29;;;;;;;40.67;19.77;;;9.10;99.90;;;;;;5046447;28;20056;-64
2023/12/18 11:50:54;;;;;;;41.30;22.63;;;9.20;99.90;;;;;;5025558;28;20045;-63
2023/12/18 11:53:23;;;;;;;39.63;19.00;;;9.20;99.90;;;;;;5049904;28;20428;-66
2023/12/18 11:55:50;;;;;;;43.83;22.10;;;9.20;99.90;;;;;;5047364;28;20040;-67
2023/12/18 11:58:19;;;;;;;38.00;23.80;;;9.20;99.90;;;;;;5046034;28;20048;-67
2023/12/18 12:00:44;;;;;;;41.35;20.90;;;9.20;99.90;;;;;;5044464;28;20041;-63
2023/12/18 12:03:12;;;;;;;41.65;19.65;;;9.30;99.90;;;;;;5049035;28;20505;-66
2023/12/18 12:05:39;;;;;;;40.90;19.55;;;9.30;99.90;;;;;;5050533;28;20120;-66
2023/12/18 12:08:06;;;;;;;37.00;18.60;;;9.30;99.90;;;;;;5037141;28;20175;-66
2023/12/18 12:10:39;;;;;;;44.42;18.73;;;9.30;99.90;;;;;;5045181;28;20048;-66
2023/12/18 12:13:04;;;;;;;35.70;18.83;;;9.30;99.90;;;;;;5044676;28;20056;-65
2023/12/18 12:15:30;;;;;;;33.40;18.67;;;9.20;99.90;;;;;;5049762;28;20032;-65
2023/12/18 12:18:04;;;;;;;36.45;19.23;;;9.30;99.90;;;;;;5031878;28;20047;-67
2023/12/18 12:20:30;;;;;;;35.22;17.50;;;9.30;99.90;;;;;;5028792;28;20051;-64
2023/12/18 12:22:55;;;;;;;31.33;18.13;;;9.20;99.90;;;;;;5020906;28;20119;-64
2023/12/18 12:25:21;;;;;;;37.47;18.13;;;9.20;99.90;;;;;;5021597;28;20029;-64
2023/12/18 12:27:47;;;;;;;37.20;18.25;;;9.20;99.90;;;;;;5024747;28;20048;-66
2023/12/18 12:30:13;;;;;;;38.00;17.20;;;9.20;99.90;;;;;;5022778;28;20048;-66
2023/12/18 12:32:39;;;;;;;41.05;18.60;;;9.20;99.90;;;;;;5046481;28;20478;-65
2023/12/18 12:35:07;;;;;;;35.17;17.80;;;9.20;99.90;;;;;;5032434;28;20127;-66
2023/12/18 12:37:33;;;;;;;38.83;17.80;;;9.20;99.90;;;;;;5049980;28;20099;-66
2023/12/18 12:40:00;;;;;;;35.20;16.48;;;9.20;99.90;;;;;;5038765;28;20033;-66
2023/12/18 12:42:26;;;;;;;39.33;18.27;;;9.20;99.90;;;;;;5048343;28;20045;-66
2023/12/18 12:44:52;;;;;;;36.53;18.45;;;9.20;99.90;;;;;;5050386;28;20083;-64
2023/12/18 12:47:18;;;;;;;39.10;18.50;;;9.20;99.90;;;;;;5027069;28;20044;-66
2023/12/18 12:49:48;;;;;;;37.10;18.92;;;9.20;99.90;;;;;;5050546;28;20036;-65
2023/12/18 12:52:15;;;;;;;37.08;18.52;;;9.20;99.90;;;;;;5027520;28;20041;-65
2023/12/18 12:54:43;;;;;;;39.80;18.67;;;9.20;99.90;;;;;;5025133;28;20049;-64
2023/12/18 12:57:10;;;;;;;33.50;18.23;;;9.20;99.90;;;;;;5052623;28;20430;-64
2023/12/18 12:59:36;;;;;;;37.17;18.92;;;9.20;99.90;;;;;;5052868;28;20491;-66
2023/12/18 13:02:01;;;;;;;34.63;19.17;;;9.20;99.90;;;;;;5053419;28;20037;-66
2023/12/18 13:04:27;;;;;;;33.47;17.80;;;9.20;99.90;;;;;;5040248;28;20044;-66
2023/12/18 13:06:52;;;;;;;30.02;17.65;;;9.20;99.90;;;;;;5030791;28;20033;-67
2023/12/18 13:09:18;;;;;;;37.13;18.50;;;9.20;99.90;;;;;;5035421;28;20049;-67
2023/12/18 13:11:43;;;;;;;36.63;17.17;;;9.20;99.90;;;;;;5028325;28;20044;-66
2023/12/18 13:14:09;;;;;;;36.60;17.80;;;9.20;99.90;;;;;;5048232;28;20037;-67
2023/12/18 13:16:35;;;;;;;32.90;18.52;;;9.20;99.90;;;;;;5052887;28;20121;-65
2023/12/18 13:19:00;;;;;;;34.17;17.95;;;9.30;99.90;;;;;;5035412;28;20065;-66
2023/12/18 13:21:26;;;;;;;33.85;17.63;;;9.30;99.90;;;;;;5048474;28;20037;-66
2023/12/18 13:23:51;;;;;;;34.25;17.55;;;9.30;99.90;;;;;;5052910;28;20588;-65
2023/12/18 13:26:17;;;;;;;36.30;18.63;;;9.30;99.90;;;;;;5052046;28;20025;-67
2023/12/18 13:28:42;;;;;;;34.72;17.48;;;9.30;99.90;;;;;;5037241;28;20032;-66
2023/12/18 13:31:08;;;;;;;30.67;16.83;;;9.30;99.90;;;;;;5042831;28;20102;-65
2023/12/18 13:33:33;;;;;;;39.13;19.90;;;9.30;99.90;;;;;;5034182;28;20136;-66
2023/12/18 13:35:59;;;;;;;30.67;17.15;;;9.30;99.90;;;;;;5049244;28;20029;-66
2023/12/18 13:38:24;;;;;;;29.83;18.17;;;9.30;99.90;;;;;;5049039;28;20045;-66
2023/12/18 13:40:50;;;;;;;38.65;17.60;;;9.30;99.90;;;;;;5052969;28;20040;-65
2023/12/18 13:43:15;;;;;;;37.63;17.80;;;9.30;99.90;;;;;;5052866;28;20037;-65
2023/12/18 13:45:41;;;;;;;36.17;18.13;;;9.30;99.90;;;;;;5043414;28;20111;-66
2023/12/18 13:48:08;;;;;;;31.95;18.80;;;9.30;99.90;;;;;;5031569;28;20138;-65
2023/12/18 13:50:34;;;;;;;37.75;17.83;;;9.30;99.90;;;;;;5052700;28;20055;-64
2023/12/18 13:53:00;;;;;;;34.22;17.77;;;9.30;99.90;;;;;;5043268;28;20041;-64
2023/12/18 13:55:25;;;;;;;35.90;19.15;;;9.30;99.90;;;;;;5051009;28;20094;-64
2023/12/18 13:57:51;;;;;;;31.15;17.38;;;9.30;99.90;;;;;;5052614;28;20513;-65
2023/12/18 14:00:17;;;;;;;38.42;18.63;;;9.30;99.90;;;;;;5052676;28;20048;-67
2023/12/18 14:02:42;;;;;;;35.28;17.67;;;9.30;99.90;;;;;;5019485;28;20033;-64
2023/12/18 14:05:09;;;;;;;29.88;18.27;;;9.30;99.90;;;;;;5041372;28;20040;-68
2023/12/18 14:07:36;;;;;;;30.48;15.95;;;9.30;99.90;;;;;;5026245;28;20041;-67
2023/12/18 14:10:02;;;;;;;37.80;18.10;;;9.30;99.90;;;;;;5041435;28;20038;-68
2023/12/18 14:12:27;;;;;;;32.13;17.00;;;9.30;99.90;;;;;;5050773;28;20171;-67
2023/12/18 14:14:53;;;;;;;38.05;17.05;;;9.30;99.90;;;;;;5048753;28;20140;-68
2023/12/18 14:17:19;;;;;;;33.30;18.20;;;9.30;99.90;;;;;;5036984;28;20037;-67
2023/12/18 14:19:44;;;;;;;33.28;17.23;;;9.30;99.90;;;;;;5052029;28;20029;-67
2023/12/18 14:22:10;;;;;;;35.08;18.63;;;9.30;99.90;;;;;;5052044;28;20587;-70
2023/12/18 14:24:35;;;;;;;34.72;16.40;;;9.30;99.90;;;;;;5041824;28;20414;-67
2023/12/18 14:27:01;;;;;;;33.72;19.17;;;9.30;99.90;;;;;;5046241;28;20458;-67
2023/12/18 14:29:26;;;;;;;32.05;17.48;;;9.30;99.90;;;;;;5027895;28;20447;-68
2023/12/18 14:31:52;;;;;;;34.10;18.73;;;9.30;99.90;;;;;;5047932;28;20380;-66
2023/12/18 14:34:17;;;;;;;35.08;19.08;;;9.30;99.90;;;;;;5051467;28;20502;-67
2023/12/18 14:36:43;;;;;;;38.30;17.60;;;9.20;99.90;;;;;;5051941;28;20045;-68
2023/12/18 14:39:09;;;;;;;38.75;19.70;;;9.20;99.90;;;;;;5037918;28;20037;-67
2023/12/18 14:41:35;;;;;;;39.00;19.25;;;9.20;99.90;;;;;;5027020;28;20044;-67
2023/12/18 14:44:00;;;;;;;33.88;19.02;;;9.30;99.90;;;;;;5016364;28;20402;-67
2023/12/18 14:46:26;;;;;;;38.17;20.08;;;9.30;99.90;;;;;;5042474;28;20044;-68
2023/12/18 14:48:51;;;;;;;34.97;20.15;;;9.30;99.90;;;;;;5051842;28;20471;-68
2023/12/18 14:51:17;;;;;;;35.78;18.00;;;9.20;99.90;;;;;;5051223;28;20041;-66
2023/12/18 14:53:42;;;;;;;37.30;19.08;;;9.20;99.90;;;;;;5031119;28;20085;-66
2023/12/18 14:56:08;;;;;;;33.85;19.10;;;9.20;99.90;;;;;;5047985;28;20495;-66
2023/12/18 14:58:34;;;;;;;36.78;19.02;;;9.20;99.90;;;;;;5043914;28;20045;-68
2023/12/18 15:01:00;;;;;;;36.55;18.63;;;9.30;99.90;;;;;;5044552;28;20368;-68
2023/12/18 15:03:25;;;;;;;38.95;20.58;;;9.20;99.90;;;;;;5037644;28;20041;-68
2023/12/18 15:05:51;;;;;;;36.38;19.70;;;9.30;99.90;;;;;;5027615;28;20033;-67
2023/12/18 15:08:16;;;;;;;37.97;19.60;;;9.30;99.90;;;;;;5050493;28;20040;-67
2023/12/18 15:10:42;;;;;;;35.00;19.20;;;9.20;99.90;;;;;;5045236;28;20037;-67
2023/12/18 15:13:09;;;;;;;40.55;20.67;;;9.20;99.90;;;;;;5026554;28;20068;-67
2023/12/18 15:15:34;;;;;;;40.65;19.90;;;9.20;99.90;;;;;;5039422;28;20071;-68
2023/12/18 15:18:00;;;;;;;37.63;20.33;;;9.30;99.90;;;;;;5042001;28;20068;-67
2023/12/18 15:20:25;;;;;;;36.78;19.27;;;9.20;99.90;;;;;;5049202;28;20039;-67
2023/12/18 15:22:51;;;;;;;39.00;19.65;;;9.20;99.90;;;;;;5026689;28;20045;-66
2023/12/18 15:25:16;;;;;;;37.42;19.27;;;9.20;99.90;;;;;;5048683;28;20033;-65
2023/12/18 15:27:43;;;;;;;40.97;21.15;;;9.20;99.90;;;;;;5051075;28;20048;-66
2023/12/18 15:30:09;;;;;;;41.00;20.65;;;9.20;99.90;;;;;;5044037;28;20041;-66
2023/12/18 15:32:35;;;;;;;35.25;18.92;;;9.20;99.90;;;;;;5036239;28;20069;-65
2023/12/18 15:35:02;;;;;;;34.53;22.13;;;9.20;99.90;;;;;;5025307;28;20087;-68
2023/12/18 15:37:28;;;;;;;40.88;21.13;;;9.30;99.90;;;;;;5049668;28;20036;-66
2023/12/18 15:39:56;;;;;;;39.17;20.98;;;9.20;99.90;;;;;;5050426;28;20114;-66
2023/12/18 15:42:22;;;;;;;39.50;21.40;;;9.20;99.90;;;;;;5020525;28;20048;-68
2023/12/18 15:44:49;;;;;;;40.45;21.55;;;9.20;99.90;;;;;;5047385;28;20090;-67
2023/12/18 15:47:16;;;;;;;38.65;20.25;;;9.20;99.90;;;;;;5046980;28;20040;-67
2023/12/18 15:49:41;;;;;;;43.90;20.95;;;9.20;99.90;;;;;;5042969;28;20037;-67
2023/12/18 15:52:07;;;;;;;39.85;20.67;;;9.20;99.90;;;;;;5043719;28;20400;-66
2023/12/18 15:54:33;;;;;;;34.80;20.27;;;9.20;99.90;;;;;;5028903;28;20106;-66
2023/12/18 15:56:59;;;;;;;41.92;22.77;;;9.20;99.90;;;;;;5047952;28;20045;-66
2023/12/18 15:59:25;;;;;;;36.00;19.33;;;9.20;99.90;;;;;;5041254;28;20033;-66
2023/12/18 16:01:51;;;;;;;45.40;23.00;;;9.20;99.90;;;;;;5045433;28;20041;-67
2023/12/18 16:04:16;;;;;;;42.25;23.08;;;9.20;99.90;;;;;;5037524;28;20037;-65
2023/12/18 16:06:43;;;;;;;39.65;20.63;;;9.20;99.90;;;;;;5039645;28;20082;-65
2023/12/18 16:09:12;;;;;;;47.03;22.70;;;9.20;99.90;;;;;;5011213;28;20056;-65
2023/12/18 16:11:39;;;;;;;33.97;18.83;;;9.20;99.90;;;;;;5045937;28;20420;-67
2023/12/18 16:14:05;;;;;;;41.05;20.17;;;9.20;99.90;;;;;;5021627;28;20033;-69
2023/12/18 16:16:30;;;;;;;39.78;23.92;;;9.20;99.90;;;;;;5044507;28;21340;-67
2023/12/18 16:18:56;;;;;;;41.05;22.33;;;9.20;99.90;;;;;;5046678;28;20048;-67
2023/12/18 16:21:22;;;;;;;36.20;22.42;;;9.10;99.90;;;;;;5046959;28;20033;-67
2023/12/18 16:23:47;;;;;;;35.28;18.90;;;9.10;99.90;;;;;;5003818;28;20046;-66
2023/12/18 16:26:14;;;;;;;38.33;19.20;;;9.10;99.90;;;;;;5046641;28;20079;-65
2023/12/18 16:28:40;;;;;;;38.47;21.92;;;9.10;99.90;;;;;;5046555;28;20123;-67
2023/12/18 16:31:06;;;;;;;38.53;23.45;;;9.10;99.90;;;;;;5046797;28;20128;-67
2023/12/18 16:33:32;;;;;;;42.45;22.85;;;9.10;99.90;;;;;;5037209;28;20060;-66
2023/12/18 16:35:58;;;;;;;40.20;21.65;;;9.10;99.90;;;;;;5007310;28;20045;-67
2023/12/18 16:38:24;;;;;;;41.35;22.92;;;9.00;99.90;;;;;;5026363;28;20069;-66
2023/12/18 16:40:51;;;;;;;43.10;22.42;;;9.00;99.90;;;;;;5019296;28;20037;-65
2023/12/18 16:43:17;;;;;;;46.40;22.92;;;9.00;99.90;;;;;;5045717;28;20121;-68
2023/12/18 16:45:42;;;;;;;41.08;22.55;;;9.00;99.90;;;;;;5046363;28;20448;-68
2023/12/18 16:48:08;;;;;;;45.97;23.33;;;8.90;99.90;;;;;;5003750;28;20041;-68
2023/12/18 16:50:34;;;;;;;45.95;24.23;;;8.90;99.90;;;;;;5038289;28;20041;-66
2023/12/18 16:52:59;;;;;;;46.30;22.80;;;8.90;99.90;;;;;;5032374;28;20041;-67
2023/12/18 16:55:25;;;;;;;44.33;24.38;;;8.90;99.90;;;;;;5041623;28;20037;-66
2023/12/18 16:57:51;;;;;;;43.08;25.90;;;8.90;99.90;;;;;;5040437;28;20033;-67
2023/12/18 17:00:18;;;;;;;50.47;25.65;;;8.90;99.90;;;;;;5045522;28;20537;-65